Terminal Aerodrome Forecast
Issued by NWS Los Angeles, CA

Home | Current Version | Previous Version | Text Only | Print | Product List | Glossary On
Versions: 1 2 3 4 5 6 7 8 9 10 11 12 13 14 15 16 17 18
000
FTUS46 KLOX 232337
TAFSMX
TAF
KSMX 232337Z 2400/2424 31012KT 6SM HZ SCT015
     FM240200 31008KT P6SM OVC006
     FM240800 VRB03KT 2SM BR OVC004
     FM241600 VRB03KT P6SM OVC008
     FM241800 30007KT P6SM SCT013
     FM242000 30013KT P6SM SKC=

USA.gov is the U.S. government's official web portal to all federal, state and local government web resources and services.